Time;durP1;ratioP1;P1;durP2;ratioP2;P2;SDS_P1;SDS_P2;PMS_P1;PMS_P2;Temp;Humidity;BMP_temperature;BMP_pressure;BME280_temperature;BME280_humidity;BME280_pressure;Samples;Min_cycle;Max_cycle;Signal;HPM_P1;HPM_P2
2021/12/03 00:00:28;;;;;;;20.98;10.23;;;;;;;1.50;93.45;98232.53;5066759;28;20032;-68
2021/12/03 00:02:54;;;;;;;25.52;10.25;;;;;;;1.47;93.52;98239.38;5066886;28;20039;-68
2021/12/03 00:05:20;;;;;;;26.40;11.02;;;;;;;1.44;93.76;98241.94;5066814;28;20021;-68
2021/12/03 00:07:45;;;;;;;24.88;10.50;;;;;;;1.37;93.89;98247.94;5066611;28;20344;-68
2021/12/03 00:10:13;;;;;;;20.65;10.40;;;;;;;1.33;93.88;98246.16;5066569;28;20025;-68
2021/12/03 00:12:40;;;;;;;19.38;9.23;;;;;;;1.24;94.51;98240.88;5067051;28;20021;-68
2021/12/03 00:15:08;;;;;;;28.48;10.30;;;;;;;1.16;94.23;98252.88;5066410;28;20059;-68
2021/12/03 00:17:34;;;;;;;20.10;10.02;;;;;;;1.11;94.23;98245.03;5066202;28;20404;-68
2021/12/03 00:19:59;;;;;;;23.60;9.98;;;;;;;1.05;94.31;98250.19;5066715;28;20021;-68
2021/12/03 00:22:25;;;;;;;22.52;9.48;;;;;;;0.99;94.63;98249.22;5066636;28;20027;-68
2021/12/03 00:24:51;;;;;;;22.90;9.82;;;;;;;0.96;94.56;98249.19;5066006;28;20020;-68
2021/12/03 00:27:17;;;;;;;24.65;10.48;;;;;;;0.93;94.65;98254.34;5067035;28;20029;-68
2021/12/03 00:29:43;;;;;;;23.60;10.25;;;;;;;0.88;94.75;98272.41;5066926;28;20021;-68
2021/12/03 00:32:08;;;;;;;23.63;9.93;;;;;;;0.87;94.91;98264.63;5067059;28;20231;-68
2021/12/03 00:34:34;;;;;;;21.65;10.15;;;;;;;0.78;94.60;98270.56;5066767;28;20324;-68
2021/12/03 00:36:59;;;;;;;22.58;9.70;;;;;;;0.70;94.27;98282.56;5066055;28;20028;-68
2021/12/03 00:39:26;;;;;;;24.17;10.75;;;;;;;0.59;94.42;98284.13;5066247;28;20025;-68
2021/12/03 00:41:57;;;;;;;23.88;9.65;;;;;;;0.53;94.70;98288.34;5066065;28;20028;-68
2021/12/03 00:44:24;;;;;;;19.70;9.67;;;;;;;0.40;94.79;98286.41;5066341;28;20309;-68
2021/12/03 00:46:50;;;;;;;26.75;11.10;;;;;;;0.33;94.93;98289.75;5065979;28;20246;-68
2021/12/03 00:49:16;;;;;;;19.20;9.85;;;;;;;0.25;95.51;98291.38;5065963;28;20215;-68
2021/12/03 00:51:41;;;;;;;27.80;10.27;;;;;;;0.18;94.88;98294.72;5065966;28;20043;-68
2021/12/03 00:54:07;;;;;;;27.70;12.52;;;;;;;0.15;95.23;98289.50;5065777;28;20332;-68
2021/12/03 00:56:32;;;;;;;26.65;10.07;;;;;;;0.09;95.24;98294.56;5065146;28;20028;-68
2021/12/03 00:58:58;;;;;;;22.88;10.88;;;;;;;0.03;95.25;98294.47;5065549;28;20020;-68
2021/12/03 01:01:23;;;;;;;26.50;10.30;;;;;;;0.03;95.41;98299.66;5065948;28;20020;-68
2021/12/03 01:03:49;;;;;;;22.17;10.18;;;;;;;-0.03;95.69;98298.69;5065877;28;20089;-68
2021/12/03 01:06:14;;;;;;;27.88;10.63;;;;;;;-0.08;96.09;98292.59;5065580;28;20021;-68
2021/12/03 01:08:40;;;;;;;19.58;9.50;;;;;;;-0.12;96.02;98295.94;5065622;28;20368;-68
2021/12/03 01:11:07;;;;;;;21.38;9.70;;;;;;;-0.21;95.84;98298.41;5066096;28;20021;-68
2021/12/03 01:13:35;;;;;;;33.05;10.43;;;;;;;-0.24;95.63;98295.75;5066078;28;20067;-68
2021/12/03 01:16:00;;;;;;;21.67;9.95;;;;;;;-0.29;95.15;98294.78;5065687;28;20026;-68
2021/12/03 01:18:26;;;;;;;23.80;10.32;;;;;;;-0.32;95.74;98286.97;5065029;28;20024;-68
2021/12/03 01:20:52;;;;;;;28.83;11.48;;;;;;;-0.32;95.64;98297.31;5065417;28;20021;-68
2021/12/03 01:23:17;;;;;;;22.73;10.15;;;;;;;-0.38;96.26;98297.22;5065405;28;20020;-68
2021/12/03 01:25:43;;;;;;;22.20;10.20;;;;;;;-0.42;95.73;98300.59;5065388;28;20049;-68
2021/12/03 01:28:09;;;;;;;20.00;9.50;;;;;;;-0.54;95.55;98299.53;5065136;28;20017;-68
2021/12/03 01:30:35;;;;;;;24.13;10.98;;;;;;;-0.53;95.23;98296.94;5065214;28;20032;-68
2021/12/03 01:33:05;;;;;;;22.40;9.82;;;;;;;-0.52;95.20;98297.81;5065091;28;20090;-68
2021/12/03 01:35:30;;;;;;;19.95;9.52;;;;;;;-0.60;95.32;98300.25;5065238;28;20088;-68
2021/12/03 01:37:56;;;;;;;23.50;10.45;;;;;;;-0.74;96.16;98296.53;5065114;28;20047;-68
2021/12/03 01:40:25;;;;;;;23.50;10.60;;;;;;;-0.77;96.60;98300.78;5065393;28;20027;-68
2021/12/03 01:42:51;;;;;;;26.85;11.18;;;;;;;-0.90;96.99;98298.78;5065062;28;20251;-68
2021/12/03 01:45:31;;;;;;;27.55;11.05;;;;;;;-0.83;97.10;98301.53;5064838;28;20066;-68
2021/12/03 01:47:58;;;;;;;24.25;10.77;;;;;;;-0.87;96.76;98299.75;5061197;28;20024;-68
2021/12/03 01:50:28;;;;;;;46.42;20.92;;;;;;;-0.82;97.65;98303.25;5065154;28;20301;-68
2021/12/03 01:52:54;;;;;;;33.65;15.73;;;;;;;-0.79;97.90;98308.50;5058388;28;20054;-68
2021/12/03 01:55:20;;;;;;;34.90;16.75;;;;;;;-0.82;97.90;98318.75;5064985;28;20027;-68
2021/12/03 01:57:45;;;;;;;40.65;18.02;;;;;;;-0.81;97.60;98325.69;5064816;28;20021;-68
2021/12/03 02:00:25;;;;;;;28.67;15.38;;;;;;;-0.81;97.48;98329.97;5064498;28;20028;-68
2021/12/03 02:02:51;;;;;;;27.98;13.43;;;;;;;-0.81;97.65;98340.31;5060467;28;20027;-68
2021/12/03 02:05:17;;;;;;;20.88;9.77;;;;;;;-0.90;96.86;98333.25;5064441;28;20212;-68
2021/12/03 02:07:43;;;;;;;24.58;10.30;;;;;;;-0.93;96.53;98332.31;5064376;28;20029;-68
2021/12/03 02:10:09;;;;;;;25.13;10.25;;;;;;;-1.05;96.51;98335.50;5064693;28;20021;-68
2021/12/03 02:12:34;;;;;;;20.60;9.95;;;;;;;-1.11;96.16;98340.53;5064200;28;20025;-68
2021/12/03 02:15:00;;;;;;;19.70;9.88;;;;;;;-1.09;95.98;98354.38;5064237;28;20238;-68
2021/12/03 02:17:25;;;;;;;21.80;10.57;;;;;;;-1.04;96.20;98352.75;5064098;28;20099;-68
2021/12/03 02:19:51;;;;;;;23.48;11.02;;;;;;;-1.13;95.45;98352.56;5064343;28;20017;-68
2021/12/03 02:22:16;;;;;;;30.85;10.95;;;;;;;-1.28;95.91;98364.25;5063967;28;20036;-68
2021/12/03 02:24:42;;;;;;;22.08;10.07;;;;;;;-1.27;96.43;98372.03;5064225;28;20083;-68
2021/12/03 02:27:07;;;;;;;24.60;9.88;;;;;;;-1.30;96.87;98373.69;5064219;28;20052;-68
2021/12/03 02:29:33;;;;;;;23.02;10.75;;;;;;;-1.22;97.50;98373.03;5063981;28;20088;-68
2021/12/03 02:31:58;;;;;;;24.33;10.52;;;;;;;-1.20;97.50;98371.31;5064023;28;20025;-68
2021/12/03 02:34:24;;;;;;;21.85;10.20;;;;;;;-1.16;97.50;98362.84;5063937;28;20063;-68
2021/12/03 02:36:49;;;;;;;23.73;10.68;;;;;;;-1.10;97.81;98373.28;5064314;28;20021;-68
2021/12/03 02:39:15;;;;;;;39.05;11.30;;;;;;;-1.09;98.26;98367.28;5069810;28;20017;-68
2021/12/03 02:41:40;;;;;;;25.48;11.18;;;;;;;-1.11;97.94;98371.53;5063869;28;20021;-68
2021/12/03 02:44:06;;;;;;;21.40;9.95;;;;;;;-1.03;97.83;98364.84;5063821;28;20216;-68
2021/12/03 02:46:31;;;;;;;22.98;10.85;;;;;;;-0.99;97.74;98370.91;5063746;28;20393;-68
2021/12/03 02:48:57;;;;;;;23.48;10.90;;;;;;;-1.08;97.70;98368.16;5063494;28;20054;-68
2021/12/03 02:51:22;;;;;;;27.80;11.73;;;;;;;-1.05;97.96;98361.34;5063829;28;20052;-68
2021/12/03 02:53:47;;;;;;;25.35;12.25;;;;;;;-1.00;97.98;98372.66;5063754;28;20020;-68
2021/12/03 02:56:13;;;;;;;28.63;13.43;;;;;;;-1.07;97.77;98373.38;5063344;28;20331;-68
2021/12/03 02:58:39;;;;;;;27.85;13.00;;;;;;;-1.11;98.03;98370.69;5063856;28;20025;-68
2021/12/03 03:01:07;;;;;;;29.13;12.48;;;;;;;-1.13;97.95;98370.66;5064186;28;20088;-68
2021/12/03 03:03:32;;;;;;;23.95;11.63;;;;;;;-1.21;97.66;98379.91;5064133;28;20033;-68
2021/12/03 03:06:00;;;;;;;25.80;12.38;;;;;;;-1.25;97.42;98365.22;5064409;28;20335;-68
2021/12/03 03:08:27;;;;;;;25.35;11.07;;;;;;;-1.32;97.01;98378.81;5063837;28;20021;-68
2021/12/03 03:10:54;;;;;;;24.83;12.32;;;;;;;-1.28;97.79;98367.72;5063654;28;20239;-68
2021/12/03 03:13:20;;;;;;;28.73;12.65;;;;;;;-1.23;98.40;98375.56;5063751;28;20031;-68
2021/12/03 03:15:46;;;;;;;32.22;14.30;;;;;;;-1.28;98.12;98367.72;5063259;28;20033;-68
2021/12/03 03:18:21;;;;;;;22.00;11.27;;;;;;;-1.39;98.11;98371.75;5062353;28;20101;-68
2021/12/03 03:20:47;;;;;;;23.63;11.20;;;;;;;-1.30;98.22;98373.69;5063349;28;20201;-68
2021/12/03 03:23:15;;;;;;;29.75;13.27;;;;;;;-1.17;99.03;98371.41;5063325;28;20021;-68
2021/12/03 03:25:42;;;;;;;32.13;12.70;;;;;;;-1.18;98.66;98374.81;5063314;28;20063;-68
2021/12/03 03:28:09;;;;;;;29.90;13.23;;;;;;;-1.16;98.66;98368.00;5063776;28;20021;-68
2021/12/03 03:30:36;;;;;;;22.23;11.75;;;;;;;-1.28;97.96;98367.72;5064080;28;20024;-68
2021/12/03 03:33:03;;;;;;;25.15;12.35;;;;;;;-1.32;98.10;98371.06;5063850;28;20021;-68
2021/12/03 03:35:29;;;;;;;23.52;12.00;;;;;;;-1.35;98.08;98376.16;5063782;28;20044;-68
2021/12/03 03:37:55;;;;;;;23.98;12.30;;;;;;;-1.40;98.24;98382.91;5064015;28;20032;-68
2021/12/03 03:40:21;;;;;;;23.35;10.30;;;;;;;-1.45;97.77;98388.81;5062848;28;20075;-68
2021/12/03 03:42:47;;;;;;;21.75;10.48;;;;;;;-1.43;97.73;98382.84;5063086;28;20031;-68
2021/12/03 03:45:16;;;;;;;24.73;10.65;;;;;;;-1.36;98.02;98387.31;5062978;28;20021;-68
2021/12/03 03:47:42;;;;;;;23.25;10.60;;;;;;;-1.34;97.97;98390.81;5062758;28;20048;-68
2021/12/03 03:50:09;;;;;;;23.27;11.32;;;;;;;-1.43;97.50;98388.00;5062899;28;20054;-68
2021/12/03 03:52:36;;;;;;;20.15;10.32;;;;;;;-1.53;97.70;98391.22;5063337;28;20083;-68
2021/12/03 03:55:03;;;;;;;25.63;11.52;;;;;;;-1.51;97.57;98388.69;5063196;28;20091;-68
2021/12/03 03:57:28;;;;;;;27.88;11.07;;;;;;;-1.57;97.51;98379.09;5062953;28;20024;-68
2021/12/03 03:59:54;;;;;;;22.15;11.25;;;;;;;-1.58;97.77;98382.47;5062643;28;20017;-68
2021/12/03 04:02:19;;;;;;;26.25;11.23;;;;;;;-1.63;97.89;98399.56;5063442;28;20024;-68
2021/12/03 04:04:45;;;;;;;31.35;11.82;;;;;;;-1.55;98.14;98408.34;5062581;28;20058;-68
2021/12/03 04:07:10;;;;;;;24.75;11.52;;;;;;;-1.55;98.33;98408.34;5063027;28;20024;-68
2021/12/03 04:09:36;;;;;;;25.33;10.60;;;;;;;-1.56;98.23;98401.47;5062651;28;20024;-68
2021/12/03 04:12:01;;;;;;;26.08;11.75;;;;;;;-1.52;98.31;98410.16;5062753;28;20343;-68
2021/12/03 04:14:27;;;;;;;22.23;10.57;;;;;;;-1.54;98.14;98410.13;5062657;28;20021;-68
2021/12/03 04:16:52;;;;;;;25.88;11.23;;;;;;;-1.51;98.00;98412.78;5062291;28;20045;-68
2021/12/03 04:19:18;;;;;;;26.05;11.25;;;;;;;-1.54;97.75;98407.53;5062551;28;20044;-68
2021/12/03 04:21:46;;;;;;;22.95;10.70;;;;;;;-1.63;97.10;98419.34;5062718;28;20084;-68
2021/12/03 04:24:11;;;;;;;30.02;11.20;;;;;;;-1.63;97.61;98424.50;5062746;28;20339;-68
2021/12/03 04:26:37;;;;;;;23.73;10.98;;;;;;;-1.60;97.86;98425.47;5062654;28;20029;-68
2021/12/03 04:29:03;;;;;;;25.35;11.35;;;;;;;-1.51;98.20;98427.38;5062670;28;20072;-68
2021/12/03 04:31:29;;;;;;;26.35;11.30;;;;;;;-1.43;98.28;98429.31;5065622;28;20024;-68
2021/12/03 04:33:54;;;;;;;26.80;11.73;;;;;;;-1.48;97.47;98419.72;5066451;28;20186;-68
2021/12/03 04:36:20;;;;;;;31.38;11.40;;;;;;;-1.40;98.05;98428.50;5066349;28;20376;-68
2021/12/03 04:38:45;;;;;;;26.80;11.63;;;;;;;-1.31;98.13;98429.59;5066066;28;20064;-68
2021/12/03 04:41:11;;;;;;;23.75;11.15;;;;;;;-1.23;97.88;98428.06;5066094;28;20029;-68
2021/12/03 04:43:36;;;;;;;29.00;10.38;;;;;;;-1.15;98.06;98426.53;5066479;28;20031;-68
2021/12/03 04:46:02;;;;;;;22.35;10.82;;;;;;;-0.96;97.96;98439.03;5065797;28;20024;-68
2021/12/03 04:48:29;;;;;;;26.63;11.57;;;;;;;-0.84;98.29;98434.13;5065786;28;20025;-68
2021/12/03 04:50:54;;;;;;;29.98;11.55;;;;;;;-0.64;98.71;98440.59;5065369;28;20029;-68
2021/12/03 04:53:20;;;;;;;35.40;13.32;;;;;;;-0.42;98.91;98444.47;5065772;28;20056;-68
2021/12/03 04:55:47;;;;;;;28.35;12.52;;;;;;;-0.34;98.80;98441.19;5065995;28;20375;-68
2021/12/03 04:58:12;;;;;;;25.45;12.10;;;;;;;-0.22;99.07;98454.38;5065848;28;20075;-68
2021/12/03 05:00:46;;;;;;;31.33;11.93;;;;;;;-0.10;98.93;98439.09;5065770;28;20063;-68
2021/12/03 05:03:13;;;;;;;27.58;13.35;;;;;;;0.09;98.76;98434.28;5065503;28;20023;-68
2021/12/03 05:05:43;;;;;;;29.73;13.82;;;;;;;0.10;97.84;98436.91;5066802;28;20027;-68
2021/12/03 05:08:09;;;;;;;23.52;11.52;;;;;;;0.13;97.52;98430.91;5065720;28;20027;-68
2021/12/03 05:10:38;;;;;;;26.17;11.43;;;;;;;0.16;97.78;98436.13;5065766;28;20044;-68
2021/12/03 05:13:07;;;;;;;22.42;11.77;;;;;;;0.24;97.66;98444.88;5065576;28;20036;-68
2021/12/03 05:15:34;;;;;;;26.00;12.07;;;;;;;0.29;97.53;98443.25;5065530;28;20059;-68
2021/12/03 05:18:00;;;;;;;23.98;11.30;;;;;;;0.30;97.31;98445.00;5065443;28;20051;-68
2021/12/03 05:20:26;;;;;;;29.60;11.27;;;;;;;0.36;97.05;98446.00;5065393;28;20039;-68
2021/12/03 05:22:53;;;;;;;26.02;12.45;;;;;;;0.43;97.19;98441.78;5065290;28;20024;-68
2021/12/03 05:25:19;;;;;;;34.17;11.30;;;;;;;0.50;96.99;98435.88;5065387;28;20036;-68
2021/12/03 05:27:44;;;;;;;21.10;10.68;;;;;;;0.45;96.72;98434.91;5065377;28;20036;-67
2021/12/03 05:30:10;;;;;;;23.70;11.77;;;;;;;0.53;96.76;98430.75;5065178;28;20260;-67
2021/12/03 05:32:36;;;;;;;20.58;9.70;;;;;;;0.56;96.81;98435.94;5065045;28;20047;-67
2021/12/03 05:35:02;;;;;;;18.23;8.93;;;;;;;0.65;96.14;98438.69;5065195;28;20225;-68
2021/12/03 05:37:27;;;;;;;22.15;9.68;;;;;;;0.63;96.65;98445.59;5065977;28;20240;-68
2021/12/03 05:39:53;;;;;;;21.75;10.30;;;;;;;0.70;96.75;98447.41;5065734;28;20055;-68
2021/12/03 05:42:18;;;;;;;18.63;9.43;;;;;;;0.76;95.84;98455.28;5065243;28;20029;-68
2021/12/03 05:44:44;;;;;;;21.50;9.95;;;;;;;0.74;96.15;98459.56;5065612;28;20028;-68
2021/12/03 05:47:09;;;;;;;22.75;8.77;;;;;;;0.87;95.74;98464.09;5065590;28;20032;-68
2021/12/03 05:49:35;;;;;;;19.33;9.15;;;;;;;0.84;95.68;98461.44;5065474;28;20047;-68
2021/12/03 05:52:00;;;;;;;21.83;8.85;;;;;;;0.81;95.74;98458.81;5065466;28;20033;-68
2021/12/03 05:54:27;;;;;;;22.65;9.45;;;;;;;0.89;95.13;98459.81;5065427;28;20032;-68
2021/12/03 05:56:53;;;;;;;17.35;8.23;;;;;;;0.89;95.34;98465.00;5065375;28;20313;-68
2021/12/03 05:59:19;;;;;;;26.13;9.30;;;;;;;0.94;95.54;98463.34;5065336;28;20025;-68
2021/12/03 06:01:45;;;;;;;13.05;7.70;;;;;;;0.96;95.42;98456.47;5065295;28;20029;-68
2021/12/03 06:04:10;;;;;;;16.25;8.52;;;;;;;1.01;94.99;98460.00;5065164;28;20370;-68
2021/12/03 06:06:36;;;;;;;19.75;8.40;;;;;;;1.04;95.07;98466.09;5065191;28;20240;-68
2021/12/03 06:09:03;;;;;;;17.92;8.45;;;;;;;0.98;95.24;98460.81;5065090;28;20348;-68
2021/12/03 06:11:28;;;;;;;18.88;8.65;;;;;;;1.09;94.97;98460.97;5065069;28;20029;-68
2021/12/03 06:13:53;;;;;;;21.05;8.98;;;;;;;1.14;94.42;98467.13;5065061;28;20238;-68
2021/12/03 06:16:19;;;;;;;20.90;8.10;;;;;;;1.18;94.56;98468.91;5064847;28;20025;-68
2021/12/03 06:18:44;;;;;;;21.63;8.13;;;;;;;1.16;94.64;98471.47;5065003;28;20321;-68
2021/12/03 06:21:11;;;;;;;13.50;8.02;;;;;;;1.11;94.48;98482.63;5064926;28;20025;-68
2021/12/03 06:23:38;;;;;;;17.23;8.60;;;;;;;1.13;94.63;98476.59;5064829;28;20017;-68
2021/12/03 06:26:05;;;;;;;17.60;8.50;;;;;;;1.09;95.17;98484.31;5064804;28;20021;-68
2021/12/03 06:28:31;;;;;;;18.38;8.70;;;;;;;1.11;95.13;98487.81;5064674;28;20084;-68
2021/12/03 06:30:57;;;;;;;18.25;8.93;;;;;;;1.12;95.30;98479.16;5064698;28;20029;-68
2021/12/03 06:33:23;;;;;;;15.25;8.93;;;;;;;1.20;94.75;98487.94;5064664;28;20066;-68
2021/12/03 06:35:49;;;;;;;17.98;9.02;;;;;;;1.14;95.29;98499.06;5064626;28;20095;-68
2021/12/03 06:38:16;;;;;;;19.75;8.70;;;;;;;1.18;95.21;98510.38;5064582;28;20028;-68
2021/12/03 06:40:42;;;;;;;22.63;8.50;;;;;;;1.19;94.67;98522.47;5064799;28;20092;-68
2021/12/03 06:43:07;;;;;;;16.63;8.13;;;;;;;1.18;94.73;98515.56;5064463;28;20029;-68
2021/12/03 06:45:33;;;;;;;17.50;9.38;;;;;;;1.21;95.16;98521.66;5064497;28;20348;-68
2021/12/03 06:47:59;;;;;;;18.05;8.60;;;;;;;1.25;94.93;98512.19;5064391;28;20031;-68
2021/12/03 06:50:24;;;;;;;20.55;8.88;;;;;;;1.26;94.50;98509.63;5064285;28;20092;-68
2021/12/03 06:52:59;;;;;;;21.48;8.98;;;;;;;1.27;94.45;98515.69;5063556;28;20029;-68
2021/12/03 06:55:26;;;;;;;16.48;9.48;;;;;;;1.24;95.34;98516.50;5064306;28;20217;-68
2021/12/03 06:57:51;;;;;;;19.63;8.68;;;;;;;1.33;94.82;98518.38;5064502;28;20020;-68
2021/12/03 07:00:17;;;;;;;17.25;8.82;;;;;;;1.35;94.63;98514.06;5064271;28;20074;-68
2021/12/03 07:02:43;;;;;;;20.33;9.20;;;;;;;1.36;94.72;98513.25;5064202;28;20020;-68
2021/12/03 07:05:09;;;;;;;17.75;9.20;;;;;;;1.37;94.78;98518.44;5064037;28;20024;-68
2021/12/03 07:07:35;;;;;;;17.90;10.35;;;;;;;1.36;95.08;98518.44;5064358;28;20100;-68
2021/12/03 07:10:02;;;;;;;24.67;10.68;;;;;;;1.30;95.38;98526.13;5064019;28;20317;-68
2021/12/03 07:12:28;;;;;;;21.88;10.20;;;;;;;1.30;95.39;98520.94;5064018;28;20025;-68
2021/12/03 07:14:53;;;;;;;17.65;9.75;;;;;;;1.33;95.11;98526.16;5064042;28;20025;-68
2021/12/03 07:17:19;;;;;;;21.25;9.52;;;;;;;1.36;94.86;98521.88;5063809;28;20033;-68
2021/12/03 07:19:45;;;;;;;22.00;10.25;;;;;;;1.36;95.15;98515.84;5064194;28;20013;-68
2021/12/03 07:22:10;;;;;;;21.60;10.30;;;;;;;1.38;95.01;98514.13;5063915;28;20186;-68
2021/12/03 07:24:35;;;;;;;22.10;10.10;;;;;;;1.34;95.36;98517.53;5063910;28;20027;-68
2021/12/03 07:27:01;;;;;;;29.13;11.07;;;;;;;1.34;95.49;98522.72;5064025;28;20244;-68
2021/12/03 07:29:28;;;;;;;21.17;10.60;;;;;;;1.33;95.59;98518.38;5063736;28;20025;-68
2021/12/03 07:31:54;;;;;;;17.48;9.45;;;;;;;1.39;95.52;98521.06;5063868;28;20023;-68
2021/12/03 07:34:19;;;;;;;22.67;9.98;;;;;;;1.40;95.24;98522.81;5063797;28;20264;-68
2021/12/03 07:36:45;;;;;;;23.38;10.32;;;;;;;1.36;95.48;98526.22;5063796;28;20103;-68
2021/12/03 07:39:10;;;;;;;17.50;9.20;;;;;;;1.45;94.84;98536.69;5063803;28;20084;-68
2021/12/03 07:41:40;;;;;;;20.40;9.30;;;;;;;1.48;94.52;98532.44;5063752;28;20372;-68
2021/12/03 07:44:05;;;;;;;19.02;9.52;;;;;;;1.41;94.74;98529.72;5063978;28;20021;-68
2021/12/03 07:46:30;;;;;;;22.55;9.60;;;;;;;1.37;94.94;98533.13;5060554;28;20027;-68
2021/12/03 07:48:56;;;;;;;19.70;10.13;;;;;;;1.34;95.24;98543.44;5057837;28;20021;-68
2021/12/03 07:51:21;;;;;;;19.10;8.73;;;;;;;1.38;94.79;98545.22;5063658;28;20024;-68
2021/12/03 07:53:47;;;;;;;17.67;9.32;;;;;;;1.35;94.62;98550.38;5055266;28;20043;-68
2021/12/03 07:56:12;;;;;;;20.38;10.20;;;;;;;1.31;94.62;98551.19;5043673;28;20028;-68
2021/12/03 07:58:38;;;;;;;21.45;10.48;;;;;;;1.36;95.03;98555.56;5043619;28;20217;-68
2021/12/03 08:01:03;;;;;;;28.60;11.63;;;;;;;1.35;94.98;98553.84;5043643;28;20325;-68
2021/12/03 08:03:29;;;;;;;26.25;12.55;;;;;;;1.27;95.24;98557.16;5051549;28;20198;-68
2021/12/03 08:05:55;;;;;;;28.58;11.68;;;;;;;1.27;95.39;98552.00;5056270;28;20028;-68
2021/12/03 08:08:26;;;;;;;33.17;12.55;;;;;;;1.19;95.13;98548.38;5058027;28;20017;-68
2021/12/03 08:10:52;;;;;;;26.60;12.30;;;;;;;1.27;94.90;98554.56;5057650;28;20017;-68
2021/12/03 08:13:17;;;;;;;24.95;11.68;;;;;;;1.11;95.31;98555.19;5055967;28;20052;-68
2021/12/03 08:15:43;;;;;;;30.25;13.95;;;;;;;1.16;95.28;98553.53;5057790;28;20029;-68
2021/12/03 08:18:08;;;;;;;29.05;12.43;;;;;;;1.23;95.39;98550.22;5056611;28;20052;-68
2021/12/03 08:20:35;;;;;;;31.83;12.70;;;;;;;1.23;94.96;98560.56;5055953;28;20025;-68
2021/12/03 08:23:00;;;;;;;26.75;12.75;;;;;;;1.24;95.03;98562.31;5047154;28;20067;-68
2021/12/03 08:25:27;;;;;;;29.40;12.13;;;;;;;1.26;95.28;98573.56;5047265;28;20053;-67
2021/12/03 08:27:53;;;;;;;26.05;11.80;;;;;;;1.30;94.90;98583.16;5047315;28;20032;-68
2021/12/03 08:30:19;;;;;;;23.17;11.45;;;;;;;1.27;94.95;98577.91;5047013;28;20084;-68
2021/12/03 08:32:44;;;;;;;24.60;10.35;;;;;;;1.25;94.68;98579.59;5047067;28;20321;-68
2021/12/03 08:35:10;;;;;;;27.45;11.98;;;;;;;1.27;94.97;98583.09;5047202;28;20029;-68
2021/12/03 08:37:36;;;;;;;26.83;11.13;;;;;;;1.28;94.50;98580.53;5046940;28;20083;-68
2021/12/03 08:40:03;;;;;;;20.00;10.65;;;;;;;1.21;94.72;98583.00;5046903;28;20021;-68
2021/12/03 08:42:29;;;;;;;20.10;10.63;;;;;;;1.25;94.29;98577.00;5046787;28;20025;-68
2021/12/03 08:44:54;;;;;;;22.35;11.30;;;;;;;1.28;94.48;98577.94;5046823;28;20110;-68
2021/12/03 08:47:20;;;;;;;21.63;10.30;;;;;;;1.29;94.65;98576.19;5046744;28;20045;-68
2021/12/03 08:49:54;;;;;;;22.10;10.73;;;;;;;1.32;94.01;98576.25;5046578;28;20052;-68
2021/12/03 08:54:57;;;;;;;21.33;9.70;;;;;;;1.39;93.71;98575.53;5046927;28;20100;-68
2021/12/03 08:57:26;;;;;;;23.35;9.60;;;;;;;1.49;93.06;98574.81;5046660;28;20021;-68
2021/12/03 08:59:54;;;;;;;21.25;9.65;;;;;;;1.53;92.76;98580.06;5046528;28;20022;-68
2021/12/03 09:02:21;;;;;;;25.65;10.38;;;;;;;1.50;92.75;98571.34;5046482;28;20036;-68
2021/12/03 09:04:48;;;;;;;17.13;8.90;;;;;;;1.57;92.17;98568.00;5046411;28;20112;-68
2021/12/03 09:07:14;;;;;;;17.05;8.38;;;;;;;1.56;92.06;98559.34;5046377;28;20025;-68
2021/12/03 09:09:39;;;;;;;17.33;8.18;;;;;;;1.60;91.63;98547.28;5046273;28;20067;-68
2021/12/03 09:12:05;;;;;;;18.67;9.55;;;;;;;1.54;91.40;98547.19;5046310;28;20025;-68
2021/12/03 09:14:45;;;;;;;15.50;8.43;;;;;;;1.64;91.42;98547.34;5046245;28;20088;-68
2021/12/03 09:17:34;;;;;;;12.93;7.85;;;;;;;1.58;91.44;98554.19;5045281;28;20046;-68
2021/12/03 09:20:23;;;;;;;12.65;7.35;;;;;;;1.63;91.16;98545.63;5046753;28;20298;-68
2021/12/03 09:22:51;;;;;;;15.32;8.15;;;;;;;1.80;91.08;98545.84;5046095;28;20031;-68
2021/12/03 09:25:22;;;;;;;17.33;7.68;;;;;;;1.67;90.53;98538.72;5046085;28;20032;-68
2021/12/03 09:27:48;;;;;;;15.57;8.27;;;;;;;1.68;91.08;98532.72;5046081;28;20029;-68
2021/12/03 09:30:15;;;;;;;13.38;7.40;;;;;;;1.80;90.72;98540.63;5045878;28;20025;-68
2021/12/03 09:32:46;;;;;;;16.05;7.53;;;;;;;1.86;90.43;98546.81;5045930;28;20067;-68
2021/12/03 09:35:11;;;;;;;15.45;7.68;;;;;;;1.61;90.60;98538.66;5046219;28;20029;-68
2021/12/03 09:37:37;;;;;;;17.95;8.50;;;;;;;1.63;91.11;98555.13;5045823;28;20273;-68
2021/12/03 09:40:07;;;;;;;16.17;7.82;;;;;;;1.63;91.86;98558.59;5046062;28;20244;-68
2021/12/03 09:42:37;;;;;;;12.88;7.32;;;;;;;1.64;91.09;98549.06;5045763;28;20092;-68
2021/12/03 09:45:04;;;;;;;14.98;7.90;;;;;;;1.73;90.90;98562.16;5045695;28;20428;-68
2021/12/03 09:47:30;;;;;;;14.52;7.45;;;;;;;1.75;90.86;98557.88;5045904;28;20021;-68
2021/12/03 09:49:56;;;;;;;16.98;8.30;;;;;;;1.79;90.72;98564.84;5045560;28;20029;-68
2021/12/03 09:58:17;;;;;;;17.35;8.48;;;;;;;1.85;90.53;98554.56;5040966;28;20033;-68
2021/12/03 10:01:05;;;;;;;11.93;6.45;;;;;;;1.94;90.27;98549.50;5045457;28;20025;-68
2021/12/03 10:03:59;;;;;;;14.73;6.47;;;;;;;2.04;89.70;98552.25;5045376;28;20032;-68
2021/12/03 10:12:07;;;;;;;14.40;7.28;;;;;;;2.01;89.68;98559.09;5045230;28;20276;-68
2021/12/03 10:20:00;;;;;;;11.43;6.22;;;;;;;2.10;89.70;98551.44;5045057;28;20341;-68
2021/12/03 10:26:06;;;;;;;17.70;6.88;;;;;;;2.03;90.25;98540.09;5044931;28;20043;-68
2021/12/03 10:39:25;;;;;;;15.10;6.78;;;;;;;2.02;90.26;98542.66;5044975;28;20025;-67
2021/12/03 10:44:11;;;;;;;12.73;6.38;;;;;;;2.01;90.32;98538.34;5061617;28;20048;-68
2021/12/03 10:51:53;;;;;;;9.93;5.07;;;;;;;1.81;89.14;98514.72;5057553;28;20048;-68
2021/12/03 11:30:10;;;;;;;10.95;5.30;;;;;;;2.09;88.00;98457.09;5063081;28;20036;-68
2021/12/03 12:13:30;;;;;;;13.07;5.95;;;;;;;2.53;86.86;98423.78;5057089;28;20028;-68
2021/12/03 14:43:40;;;;;;;13.32;5.35;;;;;;;2.85;86.38;98245.56;5044634;28;20095;-69
2021/12/03 14:54:35;;;;;;;10.68;4.82;;;;;;;2.71;86.74;98235.97;5044775;28;20040;-69
2021/12/03 14:57:57;;;;;;;10.93;5.10;;;;;;;2.67;86.53;98219.53;5044422;28;20033;-69
2021/12/03 15:00:10;;;;;;;12.13;4.85;;;;;;;2.56;86.92;98226.38;5041367;28;20056;-69
2021/12/03 15:08:26;;;;;;;9.55;4.57;;;;;;;2.65;86.89;98221.25;5040361;28;20037;-69
2021/12/03 15:26:01;;;;;;;13.02;5.30;;;;;;;2.61;86.47;98203.03;5044275;28;20067;-69
2021/12/03 15:36:14;;;;;;;14.50;5.53;;;;;;;2.53;86.09;98194.34;5044190;28;20029;-69
2021/12/03 16:10:32;;;;;;;11.45;5.20;;;;;;;2.56;85.63;98164.03;5043522;28;20260;-69
2021/12/03 16:21:10;;;;;;;9.25;4.38;;;;;;;2.40;85.89;98151.84;5043821;28;20028;-69
2021/12/03 16:50:50;;;;;;;15.07;4.93;;;;;;;2.41;86.27;98100.78;5046775;28;20220;-69
2021/12/03 16:53:25;;;;;;;7.63;4.20;;;;;;;2.40;86.51;98084.34;5046751;28;20022;-69
2021/12/03 16:56:00;;;;;;;10.57;4.28;;;;;;;2.38;86.59;98091.28;5046689;28;20025;-69
2021/12/03 16:58:25;;;;;;;10.48;4.15;;;;;;;2.29;87.00;98080.84;5046696;28;20029;-69
2021/12/03 17:00:59;;;;;;;14.82;4.72;;;;;;;2.32;86.40;98080.84;5046597;28;20039;-69
2021/12/03 17:03:30;;;;;;;11.85;4.28;;;;;;;2.33;86.50;98087.78;5046509;28;20316;-69
2021/12/03 17:22:21;;;;;;;11.13;4.55;;;;;;;2.43;86.81;98089.53;5065542;28;20062;-69
2021/12/03 17:49:16;;;;;;;20.08;5.28;;;;;;;2.71;85.95;98048.91;5063804;28;20028;-70
2021/12/03 17:57:30;;;;;;;11.32;4.60;;;;;;;2.73;85.96;98040.28;5063923;28;20220;-70
2021/12/03 17:59:56;;;;;;;10.23;4.07;;;;;;;2.67;85.71;98035.06;5060155;28;20013;-70
2021/12/03 18:05:36;;;;;;;12.13;4.07;;;;;;;2.75;86.28;98022.09;5063944;28;20423;-69
2021/12/03 18:16:26;;;;;;;9.98;4.18;;;;;;;2.87;84.90;98002.19;5030844;28;20040;-69
2021/12/03 18:51:18;;;;;;;9.50;3.40;;;;;;;2.97;84.69;97938.09;5062995;28;20020;-69
2021/12/03 18:53:50;;;;;;;;;;;;;;;2.90;85.32;97937.22;5063466;28;20098;-69
2021/12/03 18:56:52;;;;;;;7.93;3.47;;;;;;;2.91;85.38;97931.13;5063114;28;19972;-69
2021/12/03 18:59:09;;;;;;;11.20;3.70;;;;;;;2.81;86.03;97923.38;5062625;28;20032;-69
2021/12/03 19:01:36;;;;;;;10.32;3.92;;;;;;;2.87;86.20;97921.63;5062911;28;20013;-69
2021/12/03 19:04:13;;;;;;;11.73;3.65;;;;;;;2.85;86.29;97918.16;5062982;28;20021;-69
2021/12/03 19:06:54;;;;;;;18.67;3.85;;;;;;;2.80;86.59;97912.09;5062075;28;20108;-69